Florencia — IBPD — position and weather

sailwx.info

Track history (hours):
 
Tides and Currents Weather Stations Pressure Air Temp Water Temp Dewpoint Dewpoint Depression Visibility Wind Speed Wind Dir Waves Ship Positions

Florencia

Last reported at 2016-May-01 02:23 UTC. Time now 2016-May-01 21:18 UTC.
Position N 38°49' E 015°23'.

Length 186 m; draft 6 m.

Type: Passenger vessel. MMSI: 247105900.

Date/timePositionNaut miles runAvg speedWind from/ knotsBaromVisibWave heightAir tempDewpointWater temp
2016-May-01 02:23N 38°49' E 015°23'1821.4
2016-May-01 01:33N 38°33' E 015°34'1918.8
2016-May-01 00:33N 38°15' E 015°40'2020.3
2016-Apr-30 23:33N 37°57' E 015°30'2321.5
2016-Apr-30 22:30N 37°36' E 015°17'5 0.3
2016-Apr-30 05:20N 37°40' E 015°20'1721.4
2016-Apr-30 04:33N 37°56' E 015°28'2221.6
2016-Apr-30 03:33N 38°15' E 015°39'2120.8
2016-Apr-30 02:34N 38°35' E 015°30'2221.7
2016-Apr-30 01:33N 38°55' E 015°18'8721.5
2016-Apr-29 21:31N 40°13' E 014°29'2121.9
2016-Apr-29 20:33N 40°32' E 014°18'1815.8
2016-Apr-29 19:23N 40°50' E 014°16'0 0.0
2016-Apr-29 07:25N 40°50' E 014°16'0 0.0
2016-Apr-29 06:05N 40°50' E 014°16'0 0.2
2016-Apr-29 05:26N 40°50' E 014°16'1415.8
2016-Apr-29 04:33N 40°36' E 014°17'2222.3
2016-Apr-29 03:33N 40°16' E 014°28'9922.4
2016-Apr-28 23:06N 38°46' E 015°25'1222.0
2016-Apr-28 22:33N 38°36' E 015°32'2120.9
2016-Apr-28 21:33N 38°16' E 015°42'2120.8
2016-Apr-28 20:33N 37°58' E 015°30'2222.3
2016-Apr-28 19:33N 37°38' E 015°19'2 0.1
2016-Apr-28 05:32N 37°39' E 015°19'2121.3
2016-Apr-28 04:33N 37°59' E 015°30'2120.6
2016-Apr-28 03:34N 38°17' E 015°41'2121.4
2016-Apr-28 02:33N 38°37' E 015°29'2221.6
2016-Apr-28 01:33N 38°56' E 015°17'8721.9
2016-Apr-27 21:33N 40°15' E 014°28'2121.4
2016-Apr-27 20:33N 40°35' E 014°17'16 1.4
2016-Apr-27 09:23N 40°50' E 014°16'911.4
2016-Apr-27 08:33N 40°41' E 014°17'2121.1
2016-Apr-27 07:33N 40°21' E 014°24'10621.1
2016-Apr-27 02:33N 38°46' E 015°25'2221.8
2016-Apr-27 01:33N 38°26' E 015°37'1716.9
2016-Apr-27 00:33N 38°10' E 015°37'2121.2
2016-Apr-26 23:34N 37°50' E 015°26'10 0.5
2016-Apr-26 05:28N 37°42' E 015°20'2022.1
2016-Apr-26 04:33N 37°60' E 015°30'2121.3
2016-Apr-26 03:33N 38°20' E 015°39'2221.5
2016-Apr-26 02:33N 38°39' E 015°27'10720.9
2016-Apr-25 21:27N 40°15' E 014°27'1921.2
2016-Apr-25 20:33N 40°33' E 014°17'1817.3
2016-Apr-25 19:32N 40°50' E 014°16'0 0.0
2016-Apr-25 18:30N 40°50' E 014°16'0 0.0
2016-Apr-25 17:25N 40°50' E 014°16'0 0.0
2016-Apr-25 16:32N 40°50' E 014°16'0 0.0
2016-Apr-25 15:28N 40°50' E 014°16'0 0.0
2016-Apr-25 14:26N 40°50' E 014°16'0 0.0
2016-Apr-25 13:33N 40°50' E 014°16'0 0.0
2016-Apr-25 12:30N 40°50' E 014°16'0 0.0
2016-Apr-25 11:33N 40°50' E 014°16'0 0.0
2016-Apr-25 10:33N 40°50' E 014°16'0 0.0
2016-Apr-25 09:27N 40°50' E 014°16'0 0.0
2016-Apr-25 07:21N 40°50' E 014°16'0 0.0
2016-Apr-25 06:33N 40°50' E 014°16'1010.5
2016-Apr-25 05:33N 40°40' E 014°17'2019.7
2016-Apr-25 04:33N 40°21' E 014°25'10320.2
2016-Apr-24 23:28N 38°49' E 015°24'1920.6
2016-Apr-24 22:33N 38°32' E 015°34'1817.7
2016-Apr-24 21:33N 38°15' E 015°39'1817.7
2016-Apr-24 20:33N 37°58' E 015°31'2120.8
2016-Apr-24 19:33N 37°39' E 015°19'3 0.2
2016-Apr-24 05:24N 37°37' E 015°18'1822.0
2016-Apr-24 04:33N 37°54' E 015°27'2222.3
2016-Apr-24 03:33N 38°14' E 015°37'2019.5
2016-Apr-24 02:33N 38°33' E 015°31'148 7.1
2016-Apr-23 05:34N 40°50' E 014°17'2020.4
2016-Apr-23 04:33N 40°30' E 014°19'2221.9
2016-Apr-23 03:33N 40°10' E 014°32'8822.1
2016-Apr-22 23:33N 38°51' E 015°22'2222.0
2016-Apr-22 22:33N 38°31' E 015°35'1717.1
2016-Apr-22 21:34N 38°14' E 015°37'2121.2
2016-Apr-22 20:33N 37°54' E 015°28'2522.1
2016-Apr-22 19:25N 37°31' E 015°14'8 0.6
2016-Apr-22 05:25N 37°39' E 015°19'1921.8
2016-Apr-22 04:34N 37°56' E 015°28'2121.4
2016-Apr-22 03:33N 38°15' E 015°39'2120.8
2016-Apr-22 02:33N 38°35' E 015°30'10921.5
2016-Apr-21 21:29N 40°13' E 014°29'2021.7
2016-Apr-21 20:33N 40°32' E 014°18'1918.4
2016-Apr-21 19:31N 40°50' E 014°16'0 0.0
2016-Apr-21 17:33N 40°50' E 014°16'0 0.0
2016-Apr-21 16:32N 40°50' E 014°16'0 0.0
2016-Apr-21 15:21N 40°50' E 014°16'0 0.0
2016-Apr-21 14:33N 40°50' E 014°16'0 0.0
2016-Apr-21 13:33N 40°50' E 014°16'0 0.0
2016-Apr-21 12:32N 40°50' E 014°16'0 0.0
2016-Apr-21 11:33N 40°50' E 014°16'0 0.0
2016-Apr-21 10:28N 40°50' E 014°16'3 1.3
2016-Apr-21 08:33N 40°48' E 014°17'2121.3
2016-Apr-21 07:33N 40°27' E 014°20'2222.0
2016-Apr-21 06:33N 40°07' E 014°33'  
Track history (hours):
 
Tides and Currents Weather Stations Pressure Air Temp Water Temp Dewpoint Dewpoint Depression Visibility Wind Speed Wind Dir Waves Ship Positions

Florencia

Last reported at 2016-May-01 02:23 UTC. Time now 2016-May-01 21:18 UTC.
Position N 38°49' E 015°23'.

Length 186 m; draft 6 m.

Type: Passenger vessel. MMSI: 247105900.

Date/timePositionNaut miles runAvg speedWind from/ knotsBaromVisibWave heightAir tempDewpointWater temp
2016-May-01 02:23N 38°49' E 015°23'1821.4
2016-May-01 01:33N 38°33' E 015°34'1918.8
2016-May-01 00:33N 38°15' E 015°40'2020.3
2016-Apr-30 23:33N 37°57' E 015°30'2321.5
2016-Apr-30 22:30N 37°36' E 015°17'5 0.3
2016-Apr-30 05:20N 37°40' E 015°20'1721.4
2016-Apr-30 04:33N 37°56' E 015°28'2221.6
2016-Apr-30 03:33N 38°15' E 015°39'2120.8
2016-Apr-30 02:34N 38°35' E 015°30'2221.7
2016-Apr-30 01:33N 38°55' E 015°18'8721.5
2016-Apr-29 21:31N 40°13' E 014°29'2121.9
2016-Apr-29 20:33N 40°32' E 014°18'1815.8
2016-Apr-29 19:23N 40°50' E 014°16'0 0.0
2016-Apr-29 07:25N 40°50' E 014°16'0 0.0
2016-Apr-29 06:05N 40°50' E 014°16'0 0.2
2016-Apr-29 05:26N 40°50' E 014°16'1415.8
2016-Apr-29 04:33N 40°36' E 014°17'2222.3
2016-Apr-29 03:33N 40°16' E 014°28'9922.4
2016-Apr-28 23:06N 38°46' E 015°25'1222.0
2016-Apr-28 22:33N 38°36' E 015°32'2120.9
2016-Apr-28 21:33N 38°16' E 015°42'2120.8
2016-Apr-28 20:33N 37°58' E 015°30'2222.3
2016-Apr-28 19:33N 37°38' E 015°19'2 0.1
2016-Apr-28 05:32N 37°39' E 015°19'2121.3
2016-Apr-28 04:33N 37°59' E 015°30'2120.6
2016-Apr-28 03:34N 38°17' E 015°41'2121.4
2016-Apr-28 02:33N 38°37' E 015°29'2221.6
2016-Apr-28 01:33N 38°56' E 015°17'8721.9
2016-Apr-27 21:33N 40°15' E 014°28'2121.4
2016-Apr-27 20:33N 40°35' E 014°17'16 1.4
2016-Apr-27 09:23N 40°50' E 014°16'911.4
2016-Apr-27 08:33N 40°41' E 014°17'2121.1
2016-Apr-27 07:33N 40°21' E 014°24'10621.1
2016-Apr-27 02:33N 38°46' E 015°25'2221.8
2016-Apr-27 01:33N 38°26' E 015°37'1716.9
2016-Apr-27 00:33N 38°10' E 015°37'2121.2
2016-Apr-26 23:34N 37°50' E 015°26'10 0.5
2016-Apr-26 05:28N 37°42' E 015°20'2022.1
2016-Apr-26 04:33N 37°60' E 015°30'2121.3
2016-Apr-26 03:33N 38°20' E 015°39'2221.5
2016-Apr-26 02:33N 38°39' E 015°27'10720.9
2016-Apr-25 21:27N 40°15' E 014°27'1921.2
2016-Apr-25 20:33N 40°33' E 014°17'1817.3
2016-Apr-25 19:32N 40°50' E 014°16'0 0.0
2016-Apr-25 18:30N 40°50' E 014°16'0 0.0
2016-Apr-25 17:25N 40°50' E 014°16'0 0.0
2016-Apr-25 16:32N 40°50' E 014°16'0 0.0
2016-Apr-25 15:28N 40°50' E 014°16'0 0.0
2016-Apr-25 14:26N 40°50' E 014°16'0 0.0
2016-Apr-25 13:33N 40°50' E 014°16'0 0.0
2016-Apr-25 12:30N 40°50' E 014°16'0 0.0
2016-Apr-25 11:33N 40°50' E 014°16'0 0.0
2016-Apr-25 10:33N 40°50' E 014°16'0 0.0
2016-Apr-25 09:27N 40°50' E 014°16'0 0.0
2016-Apr-25 07:21N 40°50' E 014°16'0 0.0
2016-Apr-25 06:33N 40°50' E 014°16'1010.5
2016-Apr-25 05:33N 40°40' E 014°17'2019.7
2016-Apr-25 04:33N 40°21' E 014°25'10320.2
2016-Apr-24 23:28N 38°49' E 015°24'1920.6
2016-Apr-24 22:33N 38°32' E 015°34'1817.7
2016-Apr-24 21:33N 38°15' E 015°39'1817.7
2016-Apr-24 20:33N 37°58' E 015°31'2120.8
2016-Apr-24 19:33N 37°39' E 015°19'3 0.2
2016-Apr-24 05:24N 37°37' E 015°18'1822.0
2016-Apr-24 04:33N 37°54' E 015°27'2222.3
2016-Apr-24 03:33N 38°14' E 015°37'2019.5
2016-Apr-24 02:33N 38°33' E 015°31'148 7.1
2016-Apr-23 05:34N 40°50' E 014°17'2020.4
2016-Apr-23 04:33N 40°30' E 014°19'2221.9
2016-Apr-23 03:33N 40°10' E 014°32'8822.1
2016-Apr-22 23:33N 38°51' E 015°22'2222.0
2016-Apr-22 22:33N 38°31' E 015°35'1717.1
2016-Apr-22 21:34N 38°14' E 015°37'2121.2
2016-Apr-22 20:33N 37°54' E 015°28'2522.1
2016-Apr-22 19:25N 37°31' E 015°14'8 0.6
2016-Apr-22 05:25N 37°39' E 015°19'1921.8
2016-Apr-22 04:34N 37°56' E 015°28'2121.4
2016-Apr-22 03:33N 38°15' E 015°39'2120.8
2016-Apr-22 02:33N 38°35' E 015°30'10921.5
2016-Apr-21 21:29N 40°13' E 014°29'2021.7
2016-Apr-21 20:33N 40°32' E 014°18'1918.4
2016-Apr-21 19:31N 40°50' E 014°16'0 0.0
2016-Apr-21 17:33N 40°50' E 014°16'0 0.0
2016-Apr-21 16:32N 40°50' E 014°16'0 0.0
2016-Apr-21 15:21N 40°50' E 014°16'0 0.0
2016-Apr-21 14:33N 40°50' E 014°16'0 0.0
2016-Apr-21 13:33N 40°50' E 014°16'0 0.0
2016-Apr-21 12:32N 40°50' E 014°16'0 0.0
2016-Apr-21 11:33N 40°50' E 014°16'0 0.0
2016-Apr-21 10:28N 40°50' E 014°16'3 1.3
2016-Apr-21 08:33N 40°48' E 014°17'2121.3
2016-Apr-21 07:33N 40°27' E 014°20'2222.0
2016-Apr-21 06:33N 40°07' E 014°33'  

Dump ship's entire track history